sensor_id;sensor_type;location;lat;lon;timestamp;temperature;humidity
949;DHT22;461;51.436;7.312;2023-04-01T01:17:13;11.00;99.90
949;DHT22;461;51.436;7.312;2023-04-01T01:20:03;11.00;99.90
949;DHT22;461;51.436;7.312;2023-04-01T01:37:10;10.90;99.90
949;DHT22;461;51.436;7.312;2023-04-01T01:39:37;10.90;99.90
949;DHT22;461;51.436;7.312;2023-04-01T01:42:09;10.80;99.90
949;DHT22;461;51.436;7.312;2023-04-01T01:44:42;10.80;99.90
949;DHT22;461;51.436;7.312;2023-04-01T01:47:28;10.80;99.90
949;DHT22;461;51.436;7.312;2023-04-01T01:50:04;10.80;99.90
949;DHT22;461;51.436;7.312;2023-04-01T01:52:50;10.70;99.90
949;DHT22;461;51.436;7.312;2023-04-01T01:55:39;10.80;99.90
949;DHT22;461;51.436;7.312;2023-04-01T02:03:04;10.70;99.90
949;DHT22;461;51.436;7.312;2023-04-01T02:05:38;10.70;99.90
949;DHT22;461;51.436;7.312;2023-04-01T02:08:39;10.80;99.90
949;DHT22;461;51.436;7.312;2023-04-01T02:11:38;10.80;99.90
949;DHT22;461;51.436;7.312;2023-04-01T02:14:35;10.80;99.90
949;DHT22;461;51.436;7.312;2023-04-01T02:17:33;10.70;99.90
949;DHT22;461;51.436;7.312;2023-04-01T02:20:22;10.70;99.90
949;DHT22;461;51.436;7.312;2023-04-01T02:22:56;10.80;99.90
949;DHT22;461;51.436;7.312;2023-04-01T02:25:33;10.80;99.90
949;DHT22;461;51.436;7.312;2023-04-01T02:28:06;10.80;99.90
949;DHT22;461;51.436;7.312;2023-04-01T02:30:42;10.90;99.90
949;DHT22;461;51.436;7.312;2023-04-01T02:33:14;10.80;99.90
949;DHT22;461;51.436;7.312;2023-04-01T02:36:10;10.80;99.90
949;DHT22;461;51.436;7.312;2023-04-01T02:38:54;10.70;99.90
949;DHT22;461;51.436;7.312;2023-04-01T02:41:27;10.70;99.90
949;DHT22;461;51.436;7.312;2023-04-01T02:44:01;10.80;99.90
949;DHT22;461;51.436;7.312;2023-04-01T02:46:42;10.80;99.90
949;DHT22;461;51.436;7.312;2023-04-01T02:52:09;10.80;99.90
949;DHT22;461;51.436;7.312;2023-04-01T02:54:41;10.80;99.90
949;DHT22;461;51.436;7.312;2023-04-01T03:06:24;10.70;99.90
949;DHT22;461;51.436;7.312;2023-04-01T03:08:59;10.80;99.90
949;DHT22;461;51.436;7.312;2023-04-01T03:11:36;10.70;99.90
949;DHT22;461;51.436;7.312;2023-04-01T03:14:13;10.70;99.90
949;DHT22;461;51.436;7.312;2023-04-01T03:16:56;10.70;99.90
949;DHT22;461;51.436;7.312;2023-04-01T03:19:30;10.70;99.90
949;DHT22;461;51.436;7.312;2023-04-01T03:22:18;10.70;99.90
949;DHT22;461;51.436;7.312;2023-04-01T03:24:53;10.60;99.90
949;DHT22;461;51.436;7.312;2023-04-01T03:27:25;10.60;99.90
949;DHT22;461;51.436;7.312;2023-04-01T03:30:02;10.60;99.90
949;DHT22;461;51.436;7.312;2023-04-01T03:36:27;10.50;99.90
949;DHT22;461;51.436;7.312;2023-04-01T03:38:56;10.60;99.90
949;DHT22;461;51.436;7.312;2023-04-01T03:41:38;10.70;99.90
949;DHT22;461;51.436;7.312;2023-04-01T03:44:11;10.70;99.90
949;DHT22;461;51.436;7.312;2023-04-01T03:46:42;10.70;99.90
949;DHT22;461;51.436;7.312;2023-04-01T03:49:59;10.60;99.90
949;DHT22;461;51.436;7.312;2023-04-01T03:52:35;10.50;99.90
949;DHT22;461;51.436;7.312;2023-04-01T15:29:59;12.40;99.90
949;DHT22;461;51.436;7.312;2023-04-01T15:32:45;12.10;99.90
949;DHT22;461;51.436;7.312;2023-04-01T15:38:09;11.70;99.90
949;DHT22;461;51.436;7.312;2023-04-01T23:20:03;8.40;99.90
949;DHT22;461;51.436;7.312;2023-04-01T23:22:54;8.20;99.90
949;DHT22;461;51.436;7.312;2023-04-01T23:36:13;7.90;99.90
949;DHT22;461;51.436;7.312;2023-04-01T23:38:42;7.80;99.90
949;DHT22;461;51.436;7.312;2023-04-01T23:41:34;7.80;99.90
949;DHT22;461;51.436;7.312;2023-04-01T23:47:40;8.00;99.90
